createdAt,value
2022-08-20T00:02:15.694Z,10.60
2022-08-20T00:04:44.761Z,12.80
2022-08-20T00:07:14.446Z,14.30
2022-08-20T00:09:43.115Z,19.10
2022-08-20T00:12:13.188Z,14.20
2022-08-20T00:14:41.370Z,11.90
2022-08-20T00:17:09.690Z,10.60
2022-08-20T00:19:38.019Z,8.30
2022-08-20T00:22:06.207Z,14.40
2022-08-20T00:24:34.927Z,9.00
2022-08-20T00:27:03.029Z,9.00
2022-08-20T00:29:31.704Z,9.10
2022-08-20T00:32:00.998Z,15.20
2022-08-20T00:34:29.319Z,11.10
2022-08-20T00:36:57.577Z,10.30
2022-08-20T00:39:25.796Z,10.20
2022-08-20T00:41:53.844Z,11.60
2022-08-20T00:44:23.313Z,10.40
2022-08-20T00:46:52.972Z,10.30
2022-08-20T00:49:28.036Z,9.70
2022-08-20T00:52:08.079Z,13.60
2022-08-20T00:54:51.934Z,8.90
2022-08-20T00:57:26.072Z,16.60
2022-08-20T00:59:54.280Z,14.60
2022-08-20T01:02:25.461Z,13.90
2022-08-20T01:04:57.659Z,11.80
2022-08-20T01:07:32.701Z,9.00
2022-08-20T01:10:04.672Z,10.50
2022-08-20T01:12:33.042Z,12.20
2022-08-20T01:15:03.758Z,9.20
2022-08-20T01:17:36.451Z,11.90
2022-08-20T01:20:23.000Z,13.20
2022-08-20T01:23:20.162Z,14.50
2022-08-20T01:25:48.117Z,11.60
2022-08-20T01:28:20.303Z,15.10
2022-08-20T01:30:48.421Z,16.50
2022-08-20T01:33:18.575Z,11.80
2022-08-20T01:35:46.832Z,12.50
2022-08-20T01:38:14.964Z,10.80
2022-08-20T01:41:04.537Z,15.40
2022-08-20T01:43:36.458Z,12.70
2022-08-20T01:46:05.526Z,16.60
2022-08-20T01:48:33.988Z,11.00
2022-08-20T01:51:13.817Z,13.10
2022-08-20T01:53:45.644Z,14.00
2022-08-20T01:56:18.591Z,14.60
2022-08-20T01:58:55.851Z,11.30
2022-08-20T02:01:30.108Z,16.20
2022-08-20T02:03:58.339Z,12.50
2022-08-20T02:06:27.900Z,9.70
2022-08-20T02:09:01.319Z,14.60
2022-08-20T02:11:31.657Z,10.50
2022-08-20T02:13:59.871Z,15.60
2022-08-20T02:16:34.556Z,10.20
2022-08-20T02:19:10.035Z,12.60
2022-08-20T02:21:44.649Z,12.70
2022-08-20T02:24:13.257Z,13.30
2022-08-20T02:26:41.593Z,11.60
2022-08-20T02:29:11.880Z,10.20
2022-08-20T02:31:43.573Z,12.50
2022-08-20T02:34:30.131Z,13.90
2022-08-20T02:36:58.307Z,14.00
2022-08-20T02:39:27.009Z,13.70
2022-08-20T02:41:55.164Z,9.40
2022-08-20T02:44:23.421Z,9.90
2022-08-20T02:46:51.515Z,11.20
2022-08-20T02:49:20.629Z,14.00
2022-08-20T02:51:48.773Z,16.80
2022-08-20T02:54:17.448Z,12.20
2022-08-20T02:56:45.836Z,11.00
2022-08-20T02:59:19.068Z,8.80
2022-08-20T03:02:00.278Z,13.00
2022-08-20T03:04:30.041Z,13.10
2022-08-20T03:06:59.180Z,11.30
2022-08-20T03:09:27.628Z,10.80
2022-08-20T03:11:55.782Z,15.40
2022-08-20T03:14:24.519Z,10.00
2022-08-20T03:16:52.685Z,11.80
2022-08-20T03:19:21.572Z,16.20
2022-08-20T03:21:50.291Z,18.50
2022-08-20T03:24:19.088Z,13.80
2022-08-20T03:26:47.486Z,10.50
2022-08-20T03:29:15.643Z,11.50
2022-08-20T03:31:43.713Z,10.90
2022-08-20T03:34:12.037Z,9.80
2022-08-20T03:36:40.230Z,12.30
2022-08-20T03:39:13.464Z,12.90
2022-08-20T03:41:41.777Z,11.10
2022-08-20T03:44:10.358Z,10.10
2022-08-20T03:46:39.603Z,13.90
2022-08-20T03:49:08.125Z,14.70
2022-08-20T03:51:51.484Z,12.00
2022-08-20T03:54:24.723Z,11.60
2022-08-20T03:57:03.016Z,8.10
2022-08-20T03:59:41.634Z,9.50
2022-08-20T04:02:11.165Z,11.70
2022-08-20T04:04:40.848Z,10.20
2022-08-20T04:07:15.979Z,11.10
2022-08-20T04:09:44.103Z,12.70
2022-08-20T04:12:15.009Z,9.60
2022-08-20T04:14:43.299Z,11.50
2022-08-20T04:17:14.347Z,9.40
2022-08-20T04:19:42.711Z,15.50
2022-08-20T04:22:14.130Z,25.10
2022-08-20T04:24:43.339Z,10.80
2022-08-20T04:27:12.314Z,10.60
2022-08-20T04:29:43.585Z,10.80
2022-08-20T04:32:12.358Z,16.30
2022-08-20T04:34:40.734Z,8.20
2022-08-20T04:37:17.014Z,14.20
2022-08-20T04:39:45.881Z,14.10
2022-08-20T04:42:14.490Z,11.80
2022-08-20T04:44:42.579Z,10.80
2022-08-20T04:47:10.687Z,17.50
2022-08-20T04:49:39.027Z,16.60
2022-08-20T04:52:07.167Z,10.40
2022-08-20T04:54:35.799Z,17.00
2022-08-20T04:57:04.135Z,12.70
2022-08-20T04:59:32.365Z,16.30
2022-08-20T05:02:00.663Z,10.10
2022-08-20T05:04:28.823Z,20.10
2022-08-20T05:06:56.966Z,14.50
2022-08-20T05:09:25.344Z,11.20
2022-08-20T05:11:53.471Z,10.50
2022-08-20T05:14:21.642Z,11.80
2022-08-20T05:16:50.944Z,8.30
2022-08-20T05:19:19.256Z,9.50
2022-08-20T05:21:47.877Z,7.30
2022-08-20T05:24:18.946Z,7.40
2022-08-20T05:26:47.631Z,12.10
2022-08-20T05:29:16.035Z,10.60
2022-08-20T05:31:44.873Z,12.00
2022-08-20T05:34:13.864Z,8.60
2022-08-20T05:36:45.432Z,14.60
2022-08-20T05:39:16.087Z,9.50
2022-08-20T05:41:44.206Z,9.30
2022-08-20T05:44:16.126Z,9.30
2022-08-20T05:46:45.994Z,8.30
2022-08-20T05:49:20.295Z,10.30
2022-08-20T05:51:51.109Z,9.70
2022-08-20T05:54:19.608Z,10.70
2022-08-20T05:56:47.882Z,8.10
2022-08-20T05:59:17.082Z,15.00
2022-08-20T06:01:47.138Z,13.30
2022-08-20T06:04:34.354Z,14.40
2022-08-20T06:07:06.450Z,12.90
2022-08-20T06:09:36.280Z,8.70
2022-08-20T06:12:06.702Z,11.00
2022-08-20T06:14:35.065Z,13.50
2022-08-20T06:17:13.688Z,10.40
2022-08-20T06:19:45.745Z,11.40
2022-08-20T06:22:18.544Z,9.40
2022-08-20T06:24:53.399Z,11.00
2022-08-20T06:27:22.109Z,9.90
2022-08-20T06:29:51.015Z,10.10
2022-08-20T06:32:31.763Z,11.20
2022-08-20T06:35:03.997Z,8.90
2022-08-20T06:37:36.815Z,9.50
2022-08-20T06:40:10.992Z,15.90
2022-08-20T06:42:45.731Z,24.20
2022-08-20T06:45:20.409Z,15.20
2022-08-20T06:47:48.796Z,17.90
2022-08-20T06:50:32.617Z,13.00
2022-08-20T06:53:00.866Z,11.40
2022-08-20T06:55:30.666Z,13.60
2022-08-20T06:58:01.527Z,17.90
2022-08-20T07:00:32.335Z,19.50
2022-08-20T07:03:01.766Z,13.50
2022-08-20T07:05:32.594Z,13.40
2022-08-20T07:08:01.195Z,12.80
2022-08-20T07:10:30.318Z,12.10
2022-08-20T07:13:00.272Z,11.30
2022-08-20T07:15:28.870Z,9.10
2022-08-20T07:18:01.342Z,17.20
2022-08-20T07:20:31.998Z,20.00
2022-08-20T07:23:00.955Z,11.50
2022-08-20T07:25:30.864Z,14.10
2022-08-20T07:28:09.822Z,17.40
2022-08-20T07:30:57.810Z,9.50
2022-08-20T07:33:30.540Z,14.40
2022-08-20T07:36:00.333Z,19.50
2022-08-20T07:38:30.676Z,10.50
2022-08-20T07:41:13.422Z,9.50
2022-08-20T07:43:45.855Z,10.30
2022-08-20T07:46:20.594Z,11.20
2022-08-20T07:48:51.386Z,21.30
2022-08-20T07:51:22.363Z,16.90
2022-08-20T07:53:52.035Z,15.70
2022-08-20T07:56:24.614Z,15.90
2022-08-20T07:58:56.426Z,15.00
2022-08-20T08:01:28.761Z,14.70
2022-08-20T08:03:59.134Z,13.10
2022-08-20T08:06:31.430Z,17.70
2022-08-20T08:09:04.907Z,13.10
2022-08-20T08:11:37.883Z,12.10
2022-08-20T08:14:10.153Z,12.30
2022-08-20T08:16:39.510Z,10.50
2022-08-20T08:19:11.964Z,13.30
2022-08-20T08:21:41.467Z,17.20
2022-08-20T08:24:11.717Z,19.70
2022-08-20T08:26:42.329Z,12.30
2022-08-20T08:29:12.233Z,13.70
2022-08-20T08:31:41.341Z,12.10
2022-08-20T08:34:09.652Z,20.70
2022-08-20T08:36:39.324Z,16.20
2022-08-20T08:39:07.568Z,10.10
2022-08-20T08:41:40.605Z,18.80
2022-08-20T08:44:21.872Z,13.60
2022-08-20T08:46:56.303Z,10.00
2022-08-20T08:49:37.761Z,15.00
2022-08-20T08:52:16.585Z,16.60
2022-08-20T08:54:49.065Z,11.10
2022-08-20T08:57:18.716Z,9.20
2022-08-20T09:00:04.055Z,18.70
2022-08-20T09:05:13.479Z,16.40
2022-08-20T09:07:45.149Z,18.00
2022-08-20T09:10:13.326Z,12.10
2022-08-20T09:12:47.128Z,11.50
2022-08-20T09:15:16.776Z,13.90
2022-08-20T09:17:44.988Z,13.80
2022-08-20T09:20:13.764Z,13.10
2022-08-20T09:22:41.996Z,12.00
2022-08-20T09:25:10.447Z,8.70
2022-08-20T09:27:38.859Z,12.60
2022-08-20T09:30:10.379Z,13.60
2022-08-20T09:32:38.792Z,8.70
2022-08-20T09:35:09.436Z,12.00
2022-08-20T09:37:38.124Z,12.10
2022-08-20T09:40:08.963Z,12.00
2022-08-20T09:42:41.245Z,9.70
2022-08-20T09:45:11.497Z,13.70
2022-08-20T09:47:53.020Z,18.20
2022-08-20T09:50:25.263Z,9.40
2022-08-20T09:52:55.478Z,12.10
2022-08-20T09:55:32.348Z,16.80
2022-08-20T09:58:03.505Z,14.70
2022-08-20T10:00:31.751Z,12.20
2022-08-20T10:03:01.609Z,15.40
2022-08-20T10:05:30.311Z,12.80
2022-08-20T10:07:58.825Z,9.90
2022-08-20T10:10:27.093Z,10.30
2022-08-20T10:12:55.300Z,11.10
2022-08-20T10:15:23.644Z,10.70
2022-08-20T10:17:51.785Z,9.70
2022-08-20T10:20:20.650Z,6.90
2022-08-20T10:22:48.885Z,8.30
2022-08-20T10:25:17.979Z,9.60
2022-08-20T10:27:46.210Z,8.50
2022-08-20T10:30:14.751Z,6.20
2022-08-20T10:32:42.939Z,13.90
2022-08-20T10:35:11.122Z,6.50
2022-08-20T10:37:39.418Z,9.10
2022-08-20T10:40:08.748Z,7.70
2022-08-20T10:42:41.827Z,9.70
2022-08-20T10:45:13.373Z,7.20
2022-08-20T10:47:42.225Z,6.70
2022-08-20T10:50:13.831Z,14.20
2022-08-20T10:52:42.193Z,11.70
2022-08-20T10:55:10.957Z,10.80
2022-08-20T10:57:41.741Z,7.30
2022-08-20T11:00:15.065Z,8.80
2022-08-20T11:02:43.243Z,6.80
2022-08-20T11:05:11.550Z,8.30
2022-08-20T11:07:55.643Z,8.20
2022-08-20T11:10:30.260Z,7.40
2022-08-20T11:12:58.438Z,11.30
2022-08-20T11:15:26.787Z,9.60
2022-08-20T11:17:56.659Z,7.00
2022-08-20T11:20:26.440Z,7.40
2022-08-20T11:22:55.405Z,8.50
2022-08-20T11:25:25.027Z,10.30
2022-08-20T11:27:54.852Z,8.70
2022-08-20T11:30:29.379Z,7.20
2022-08-20T11:32:59.408Z,7.30
2022-08-20T11:35:48.939Z,14.00
2022-08-20T11:38:19.238Z,7.80
2022-08-20T11:40:47.471Z,7.90
2022-08-20T11:43:17.544Z,18.30
2022-08-20T11:45:49.766Z,4.60
2022-08-20T11:48:18.358Z,5.20
2022-08-20T11:50:48.085Z,8.90
2022-08-20T11:53:17.056Z,11.60
2022-08-20T11:55:45.418Z,7.40
2022-08-20T11:58:13.914Z,6.90
2022-08-20T12:00:42.165Z,5.10
2022-08-20T12:03:11.915Z,5.80
2022-08-20T12:05:42.890Z,6.90
2022-08-20T12:08:25.252Z,6.90
2022-08-20T12:11:01.569Z,6.90
2022-08-20T12:13:48.005Z,6.80
2022-08-20T12:16:20.409Z,8.70
2022-08-20T12:18:48.776Z,6.20
2022-08-20T12:21:17.411Z,5.50
2022-08-20T12:23:46.017Z,7.20
2022-08-20T12:26:16.818Z,4.90
2022-08-20T12:28:45.051Z,5.00
2022-08-20T12:31:13.196Z,8.30
2022-08-20T12:33:41.493Z,5.30
2022-08-20T12:36:09.652Z,3.80
2022-08-20T12:38:37.767Z,4.80
2022-08-20T12:41:06.683Z,14.20
2022-08-20T12:43:34.842Z,7.00
2022-08-20T12:46:03.536Z,5.30
2022-08-20T12:48:31.760Z,6.10
2022-08-20T12:50:59.852Z,5.60
2022-08-20T12:53:27.946Z,8.40
2022-08-20T12:55:56.216Z,9.50
2022-08-20T12:58:24.780Z,10.60
2022-08-20T13:00:53.034Z,5.20
2022-08-20T13:03:21.187Z,8.00
2022-08-20T13:05:51.187Z,10.70
2022-08-20T13:08:19.782Z,6.40
2022-08-20T13:10:48.288Z,10.40
2022-08-20T13:13:20.407Z,6.30
2022-08-20T13:15:51.552Z,5.40
2022-08-20T13:18:20.559Z,10.80
2022-08-20T13:20:51.693Z,13.40
2022-08-20T13:23:19.851Z,6.50
2022-08-20T13:25:48.034Z,17.60
2022-08-20T13:28:16.090Z,9.80
2022-08-20T13:30:44.250Z,7.70
2022-08-20T13:33:12.448Z,9.70
2022-08-20T13:35:40.773Z,11.50
2022-08-20T13:38:08.902Z,8.30
2022-08-20T13:40:36.972Z,13.40
2022-08-20T13:43:07.378Z,9.30
2022-08-20T13:45:39.286Z,8.00
2022-08-20T13:48:09.927Z,9.80
2022-08-20T13:50:46.983Z,23.50
2022-08-20T13:53:17.144Z,14.50
2022-08-20T13:55:45.700Z,21.50
2022-08-20T13:58:14.014Z,30.90
2022-08-20T14:00:42.167Z,27.40
2022-08-20T14:03:11.367Z,19.30
2022-08-20T14:05:39.889Z,14.20
2022-08-20T14:08:14.498Z,15.30
2022-08-20T14:10:43.677Z,11.70
2022-08-20T14:13:15.325Z,11.10
2022-08-20T14:15:45.926Z,13.10
2022-08-20T14:18:15.018Z,13.50
2022-08-20T14:20:45.556Z,29.70
2022-08-20T14:23:15.369Z,18.90
2022-08-20T14:25:47.015Z,16.70
2022-08-20T14:28:18.729Z,20.70
2022-08-20T14:30:52.915Z,13.80
2022-08-20T14:33:23.964Z,18.00
2022-08-20T14:35:53.139Z,18.20
2022-08-20T14:38:21.678Z,16.40
2022-08-20T14:40:50.622Z,12.40
2022-08-20T14:43:19.511Z,10.60
2022-08-20T14:45:47.741Z,11.80
2022-08-20T14:48:15.912Z,11.30
2022-08-20T14:50:44.171Z,10.50
2022-08-20T14:53:12.481Z,11.00
2022-08-20T14:55:40.670Z,16.40
2022-08-20T14:58:13.687Z,9.00
2022-08-20T15:00:43.640Z,18.20
2022-08-20T15:03:13.540Z,9.40
2022-08-20T15:05:42.657Z,12.00
2022-08-20T15:08:12.388Z,12.20
2022-08-20T15:10:42.745Z,10.20
2022-08-20T15:13:10.892Z,14.20
2022-08-20T15:15:40.569Z,11.50
2022-08-20T15:18:09.102Z,14.70
2022-08-20T15:20:37.783Z,14.50
2022-08-20T15:23:07.711Z,13.70
2022-08-20T15:25:37.950Z,16.60
2022-08-20T15:28:10.400Z,20.90
2022-08-20T15:30:41.688Z,13.60
2022-08-20T15:33:11.192Z,15.60
2022-08-20T15:35:39.815Z,12.10
2022-08-20T15:38:08.490Z,11.70
2022-08-20T15:40:36.846Z,18.60
2022-08-20T15:43:06.089Z,16.70
2022-08-20T15:45:36.267Z,18.60
2022-08-20T15:48:17.472Z,16.00
2022-08-20T15:50:48.657Z,15.40
2022-08-20T15:53:26.099Z,13.80
2022-08-20T15:56:12.381Z,10.30
2022-08-20T15:59:01.473Z,10.90
2022-08-20T16:01:56.507Z,15.20
2022-08-20T16:04:49.143Z,11.30
2022-08-20T16:07:24.396Z,20.10
2022-08-20T16:12:38.961Z,16.70
2022-08-20T16:15:17.713Z,12.10
2022-08-20T16:18:17.242Z,25.70
2022-08-20T16:20:48.807Z,23.70
2022-08-20T16:23:20.287Z,16.10
2022-08-20T16:26:07.035Z,18.50
2022-08-20T16:29:11.485Z,20.80
2022-08-20T16:32:03.247Z,29.30
2022-08-20T16:34:34.743Z,25.40
2022-08-20T16:37:44.094Z,22.90
2022-08-20T16:40:51.164Z,29.60
2022-08-20T16:46:15.458Z,24.00
2022-08-20T16:48:55.700Z,23.40
2022-08-20T16:51:51.683Z,26.90
2022-08-20T16:54:28.537Z,22.20
2022-08-20T16:57:03.542Z,25.40
2022-08-20T16:59:33.497Z,20.00
2022-08-20T17:02:10.214Z,27.20
2022-08-20T17:04:59.544Z,21.30
2022-08-20T17:07:51.433Z,23.50
2022-08-20T17:10:26.821Z,21.70
2022-08-20T17:13:20.701Z,23.00
2022-08-20T17:16:01.051Z,22.60
2022-08-20T17:18:40.144Z,22.80
2022-08-20T17:21:29.386Z,20.20
2022-08-20T17:24:03.439Z,20.80
2022-08-20T17:26:36.002Z,21.40
2022-08-20T17:29:14.835Z,24.10
2022-08-20T17:31:48.126Z,27.80
2022-08-20T17:34:23.317Z,28.10
2022-08-20T17:37:08.618Z,26.10
2022-08-20T17:39:46.401Z,25.70
2022-08-20T17:42:19.736Z,27.50
2022-08-20T17:44:52.362Z,29.00
2022-08-20T17:47:31.442Z,32.80
2022-08-20T17:50:24.937Z,28.90
2022-08-20T17:53:02.599Z,24.10
2022-08-20T17:55:35.476Z,29.10
2022-08-20T17:58:08.281Z,30.70
2022-08-20T18:00:36.502Z,30.30
2022-08-20T18:03:13.599Z,27.10
2022-08-20T18:05:44.031Z,29.90
2022-08-20T18:08:34.096Z,28.80
2022-08-20T18:11:27.287Z,33.60
2022-08-20T18:14:00.693Z,27.90
2022-08-20T18:16:33.434Z,27.40
2022-08-20T18:19:47.466Z,30.50
2022-08-20T18:22:24.016Z,28.60
2022-08-20T18:25:29.970Z,23.00
2022-08-20T18:28:07.857Z,22.70
2022-08-20T18:30:51.177Z,25.10
2022-08-20T18:33:38.655Z,21.00
2022-08-20T18:36:09.596Z,17.30
2022-08-20T18:38:42.169Z,16.50
2022-08-20T18:41:14.918Z,21.30
2022-08-20T18:43:43.634Z,20.20
2022-08-20T18:46:23.622Z,20.30
2022-08-20T18:48:58.598Z,16.10
2022-08-20T18:51:39.756Z,14.20
2022-08-20T18:54:08.519Z,14.20
2022-08-20T18:56:40.658Z,12.50
2022-08-20T18:59:20.362Z,13.70
2022-08-20T19:01:49.663Z,16.50
2022-08-20T19:04:32.115Z,21.00
2022-08-20T19:07:06.125Z,15.00
2022-08-20T19:09:52.991Z,17.50
2022-08-20T19:12:41.447Z,19.70
2022-08-20T19:15:16.498Z,15.80
2022-08-20T19:18:07.394Z,20.40
2022-08-20T19:20:39.371Z,13.70
2022-08-20T19:23:15.028Z,19.80
2022-08-20T19:28:55.722Z,28.80
2022-08-20T19:31:30.469Z,20.20
2022-08-20T19:34:07.277Z,24.10
2022-08-20T19:37:35.086Z,27.40
2022-08-20T19:40:21.833Z,31.20
2022-08-20T19:42:54.064Z,29.90
2022-08-20T19:45:26.810Z,27.50
2022-08-20T19:47:57.786Z,25.80
2022-08-20T19:50:38.043Z,35.90
2022-08-20T19:53:30.241Z,27.10
2022-08-20T19:55:59.378Z,27.90
2022-08-20T19:58:28.711Z,22.10
2022-08-20T20:00:58.237Z,38.60
2022-08-20T20:03:40.542Z,31.40
2022-08-20T20:06:20.470Z,32.50
2022-08-20T20:08:57.717Z,27.60
2022-08-20T20:11:37.481Z,34.70
2022-08-20T20:14:13.337Z,31.70
2022-08-20T20:16:42.505Z,41.30
2022-08-20T20:19:28.462Z,26.50
2022-08-20T20:24:58.018Z,39.70
2022-08-20T20:27:28.794Z,33.20
2022-08-20T20:30:03.025Z,40.10
2022-08-20T20:32:33.946Z,33.10
2022-08-20T20:35:06.033Z,41.90
2022-08-20T20:37:49.903Z,34.10
2022-08-20T20:40:33.935Z,48.50
2022-08-20T20:43:07.885Z,38.50
2022-08-20T20:45:54.532Z,32.00
2022-08-20T20:48:26.794Z,36.50
2022-08-20T20:51:12.084Z,33.50
2022-08-20T20:53:53.121Z,35.80
2022-08-20T20:56:42.458Z,38.80
2022-08-20T20:59:11.386Z,31.20
2022-08-20T21:01:49.815Z,34.70
2022-08-20T21:04:23.912Z,36.90
2022-08-20T21:06:59.605Z,25.70
2022-08-20T21:11:55.759Z,25.90
2022-08-20T21:14:23.945Z,28.00
2022-08-20T21:16:53.573Z,31.50
2022-08-20T21:19:21.898Z,27.10
2022-08-20T21:21:50.241Z,28.80
2022-08-20T21:24:18.906Z,26.30
2022-08-20T21:26:48.180Z,23.70
2022-08-20T21:29:21.397Z,27.10
2022-08-20T21:31:49.633Z,27.70
2022-08-20T21:34:18.897Z,31.40
2022-08-20T21:36:47.373Z,25.80
2022-08-20T21:39:16.269Z,25.80
2022-08-20T21:41:45.511Z,28.00
2022-08-20T21:44:26.050Z,26.50
2022-08-20T21:46:56.968Z,20.90
2022-08-20T21:49:27.348Z,19.50
2022-08-20T21:51:56.824Z,26.70
2022-08-20T21:54:25.816Z,24.80
2022-08-20T21:57:08.374Z,27.50
2022-08-20T21:59:38.835Z,20.10
2022-08-20T22:02:07.177Z,20.70
2022-08-20T22:04:35.761Z,21.30
2022-08-20T22:07:04.699Z,23.50
2022-08-20T22:09:36.129Z,23.40
2022-08-20T22:12:06.303Z,19.20
2022-08-20T22:14:34.950Z,25.40
2022-08-20T22:17:03.119Z,24.50
2022-08-20T22:19:31.289Z,22.30
2022-08-20T22:21:59.523Z,24.70
2022-08-20T22:24:29.307Z,24.90
2022-08-20T22:26:58.302Z,21.10
2022-08-20T22:29:27.253Z,16.50
2022-08-20T22:31:55.606Z,22.50
2022-08-20T22:34:23.833Z,15.60
2022-08-20T22:36:54.668Z,20.20
2022-08-20T22:39:22.821Z,23.10
2022-08-20T22:41:51.016Z,22.60
2022-08-20T22:44:19.331Z,17.10
2022-08-20T22:46:50.586Z,24.80
2022-08-20T22:49:27.074Z,17.70
2022-08-20T22:51:55.375Z,21.80
2022-08-20T22:54:25.407Z,19.80
2022-08-20T22:56:55.037Z,21.30
2022-08-20T22:59:23.756Z,16.30
2022-08-20T23:01:53.460Z,20.00
2022-08-20T23:04:30.195Z,23.00
2022-08-20T23:06:59.586Z,26.40
2022-08-20T23:09:28.298Z,20.60
2022-08-20T23:11:58.881Z,20.30
2022-08-20T23:14:27.343Z,18.00
2022-08-20T23:17:03.665Z,22.00
2022-08-20T23:19:32.991Z,19.80
2022-08-20T23:22:01.072Z,21.20
2022-08-20T23:24:29.237Z,19.40
2022-08-20T23:26:57.433Z,19.40
2022-08-20T23:29:26.823Z,21.30
2022-08-20T23:31:56.929Z,19.80
2022-08-20T23:34:26.486Z,20.70
2022-08-20T23:36:57.884Z,21.70
2022-08-20T23:39:28.178Z,22.10
2022-08-20T23:41:56.355Z,21.10
2022-08-20T23:44:26.052Z,20.70
2022-08-20T23:47:02.254Z,33.60
2022-08-20T23:49:31.824Z,33.70
2022-08-20T23:52:00.929Z,21.60
2022-08-20T23:54:31.228Z,23.50
2022-08-20T23:56:59.552Z,25.30
2022-08-20T23:59:27.963Z,20.60
